sensor_id;sensor_type;location;lat;lon;timestamp;P1;durP1;ratioP1;P2;durP2;ratioP2
45322;SDS011;31382;50.200;8.674;2023-08-30T00:00:22;1.48;;;0.90;;
45322;SDS011;31382;50.200;8.674;2023-08-30T00:05:23;0.82;;;0.77;;
45322;SDS011;31382;50.200;8.674;2023-08-30T00:10:25;1.00;;;0.60;;
45322;SDS011;31382;50.200;8.674;2023-08-30T00:15:27;2.72;;;0.63;;
45322;SDS011;31382;50.200;8.674;2023-08-30T00:20:28;3.53;;;1.02;;
45322;SDS011;31382;50.200;8.674;2023-08-30T00:25:30;1.00;;;0.80;;
45322;SDS011;31382;50.200;8.674;2023-08-30T00:30:31;4.25;;;0.90;;
45322;SDS011;31382;50.200;8.674;2023-08-30T00:35:33;0.82;;;0.80;;
45322;SDS011;31382;50.200;8.674;2023-08-30T00:40:38;1.25;;;0.80;;
45322;SDS011;31382;50.200;8.674;2023-08-30T00:45:40;4.22;;;0.80;;
45322;SDS011;31382;50.200;8.674;2023-08-30T00:50:42;1.48;;;1.02;;
45322;SDS011;31382;50.200;8.674;2023-08-30T00:55:44;2.05;;;1.13;;
45322;SDS011;31382;50.200;8.674;2023-08-30T01:00:45;1.95;;;1.52;;
45322;SDS011;31382;50.200;8.674;2023-08-30T01:05:48;3.10;;;1.10;;
45322;SDS011;31382;50.200;8.674;2023-08-30T01:10:52;2.15;;;1.02;;
45322;SDS011;31382;50.200;8.674;2023-08-30T01:16:00;1.70;;;1.30;;
45322;SDS011;31382;50.200;8.674;2023-08-30T01:21:03;2.65;;;0.90;;
45322;SDS011;31382;50.200;8.674;2023-08-30T01:31:28;2.60;;;1.27;;
45322;SDS011;31382;50.200;8.674;2023-08-30T01:36:34;2.23;;;1.30;;
45322;SDS011;31382;50.200;8.674;2023-08-30T01:41:37;1.50;;;1.33;;
45322;SDS011;31382;50.200;8.674;2023-08-30T01:46:39;2.55;;;1.27;;
45322;SDS011;31382;50.200;8.674;2023-08-30T01:51:41;4.20;;;1.40;;
45322;SDS011;31382;50.200;8.674;2023-08-30T01:56:43;3.05;;;1.30;;
45322;SDS011;31382;50.200;8.674;2023-08-30T02:01:44;2.38;;;1.00;;
45322;SDS011;31382;50.200;8.674;2023-08-30T02:06:48;3.03;;;1.10;;
45322;SDS011;31382;50.200;8.674;2023-08-30T02:11:59;9.25;;;1.50;;
45322;SDS011;31382;50.200;8.674;2023-08-30T02:17:04;4.93;;;1.00;;
45322;SDS011;31382;50.200;8.674;2023-08-30T02:22:07;1.50;;;1.05;;
45322;SDS011;31382;50.200;8.674;2023-08-30T02:27:08;3.05;;;1.08;;
45322;SDS011;31382;50.200;8.674;2023-08-30T02:32:10;1.17;;;0.70;;
45322;SDS011;31382;50.200;8.674;2023-08-30T02:37:12;1.35;;;1.15;;
45322;SDS011;31382;50.200;8.674;2023-08-30T02:42:13;3.28;;;1.20;;
45322;SDS011;31382;50.200;8.674;2023-08-30T02:47:15;2.53;;;0.90;;
45322;SDS011;31382;50.200;8.674;2023-08-30T02:52:17;2.15;;;1.30;;
45322;SDS011;31382;50.200;8.674;2023-08-30T02:57:19;3.15;;;1.48;;
45322;SDS011;31382;50.200;8.674;2023-08-30T03:02:20;3.30;;;1.38;;
45322;SDS011;31382;50.200;8.674;2023-08-30T03:07:21;3.20;;;1.30;;
45322;SDS011;31382;50.200;8.674;2023-08-30T03:12:23;3.70;;;1.48;;
45322;SDS011;31382;50.200;8.674;2023-08-30T03:17:24;2.92;;;1.73;;
45322;SDS011;31382;50.200;8.674;2023-08-30T03:22:26;2.78;;;1.02;;
45322;SDS011;31382;50.200;8.674;2023-08-30T03:27:27;1.80;;;1.35;;
45322;SDS011;31382;50.200;8.674;2023-08-30T03:32:28;2.08;;;1.50;;
45322;SDS011;31382;50.200;8.674;2023-08-30T03:37:31;4.13;;;2.55;;
45322;SDS011;31382;50.200;8.674;2023-08-30T03:42:32;3.58;;;1.98;;
45322;SDS011;31382;50.200;8.674;2023-08-30T03:47:34;5.25;;;2.60;;
45322;SDS011;31382;50.200;8.674;2023-08-30T03:52:35;5.55;;;2.47;;
45322;SDS011;31382;50.200;8.674;2023-08-30T03:57:37;3.72;;;2.58;;
45322;SDS011;31382;50.200;8.674;2023-08-30T04:02:38;3.95;;;2.65;;
45322;SDS011;31382;50.200;8.674;2023-08-30T04:07:40;4.28;;;2.95;;
45322;SDS011;31382;50.200;8.674;2023-08-30T04:12:41;4.40;;;2.60;;
45322;SDS011;31382;50.200;8.674;2023-08-30T04:17:42;4.65;;;2.53;;
45322;SDS011;31382;50.200;8.674;2023-08-30T04:22:44;3.83;;;2.53;;
45322;SDS011;31382;50.200;8.674;2023-08-30T04:27:45;5.15;;;3.00;;
45322;SDS011;31382;50.200;8.674;2023-08-30T04:32:47;6.68;;;2.90;;
45322;SDS011;31382;50.200;8.674;2023-08-30T04:37:48;5.97;;;3.10;;
45322;SDS011;31382;50.200;8.674;2023-08-30T04:42:49;3.85;;;2.90;;
45322;SDS011;31382;50.200;8.674;2023-08-30T04:47:51;5.05;;;2.78;;
45322;SDS011;31382;50.200;8.674;2023-08-30T04:52:54;6.07;;;3.08;;
45322;SDS011;31382;50.200;8.674;2023-08-30T04:57:55;3.83;;;2.42;;
45322;SDS011;31382;50.200;8.674;2023-08-30T05:02:56;3.85;;;2.33;;
45322;SDS011;31382;50.200;8.674;2023-08-30T05:07:58;7.13;;;2.45;;
45322;SDS011;31382;50.200;8.674;2023-08-30T05:12:59;2.95;;;2.38;;
45322;SDS011;31382;50.200;8.674;2023-08-30T05:18:01;4.20;;;2.90;;
45322;SDS011;31382;50.200;8.674;2023-08-30T05:23:02;3.40;;;3.00;;
45322;SDS011;31382;50.200;8.674;2023-08-30T05:28:04;4.60;;;2.35;;
45322;SDS011;31382;50.200;8.674;2023-08-30T05:33:06;4.10;;;2.53;;
45322;SDS011;31382;50.200;8.674;2023-08-30T05:38:07;3.30;;;2.75;;
45322;SDS011;31382;50.200;8.674;2023-08-30T05:43:09;5.68;;;2.85;;
45322;SDS011;31382;50.200;8.674;2023-08-30T05:48:10;3.88;;;2.97;;
45322;SDS011;31382;50.200;8.674;2023-08-30T05:53:13;2.75;;;2.20;;
45322;SDS011;31382;50.200;8.674;2023-08-30T05:58:14;3.10;;;2.65;;
45322;SDS011;31382;50.200;8.674;2023-08-30T06:03:16;3.58;;;2.38;;
45322;SDS011;31382;50.200;8.674;2023-08-30T06:08:18;4.65;;;2.58;;
45322;SDS011;31382;50.200;8.674;2023-08-30T06:13:19;3.20;;;2.55;;
45322;SDS011;31382;50.200;8.674;2023-08-30T06:18:21;3.95;;;2.78;;
45322;SDS011;31382;50.200;8.674;2023-08-30T06:23:22;4.88;;;2.70;;
45322;SDS011;31382;50.200;8.674;2023-08-30T06:28:24;5.07;;;2.75;;
45322;SDS011;31382;50.200;8.674;2023-08-30T06:33:25;8.90;;;3.00;;
45322;SDS011;31382;50.200;8.674;2023-08-30T06:38:27;27.00;;;6.03;;
45322;SDS011;31382;50.200;8.674;2023-08-30T06:43:28;5.97;;;3.08;;
45322;SDS011;31382;50.200;8.674;2023-08-30T06:48:29;14.77;;;3.63;;
45322;SDS011;31382;50.200;8.674;2023-08-30T06:53:31;6.30;;;3.25;;
45322;SDS011;31382;50.200;8.674;2023-08-30T06:58:32;21.55;;;5.13;;
45322;SDS011;31382;50.200;8.674;2023-08-30T07:03:34;18.88;;;4.63;;
45322;SDS011;31382;50.200;8.674;2023-08-30T07:08:35;5.60;;;4.00;;
45322;SDS011;31382;50.200;8.674;2023-08-30T07:13:37;11.10;;;5.68;;
45322;SDS011;31382;50.200;8.674;2023-08-30T07:18:38;9.15;;;6.40;;
45322;SDS011;31382;50.200;8.674;2023-08-30T07:23:41;9.88;;;7.18;;
45322;SDS011;31382;50.200;8.674;2023-08-30T07:28:42;13.10;;;8.30;;
45322;SDS011;31382;50.200;8.674;2023-08-30T07:33:44;11.57;;;8.32;;
45322;SDS011;31382;50.200;8.674;2023-08-30T07:38:46;12.13;;;8.55;;
45322;SDS011;31382;50.200;8.674;2023-08-30T07:43:47;14.88;;;9.48;;
45322;SDS011;31382;50.200;8.674;2023-08-30T07:48:49;15.82;;;10.48;;
45322;SDS011;31382;50.200;8.674;2023-08-30T07:53:50;19.10;;;10.75;;
45322;SDS011;31382;50.200;8.674;2023-08-30T07:58:51;19.13;;;12.68;;
45322;SDS011;31382;50.200;8.674;2023-08-30T08:03:53;24.23;;;14.32;;
45322;SDS011;31382;50.200;8.674;2023-08-30T08:09:08;16.75;;;12.60;;
45322;SDS011;31382;50.200;8.674;2023-08-30T08:14:10;14.35;;;10.85;;
45322;SDS011;31382;50.200;8.674;2023-08-30T08:19:12;13.32;;;10.23;;
45322;SDS011;31382;50.200;8.674;2023-08-30T08:24:13;11.48;;;9.35;;
45322;SDS011;31382;50.200;8.674;2023-08-30T08:29:15;16.35;;;9.68;;
45322;SDS011;31382;50.200;8.674;2023-08-30T08:34:16;11.48;;;9.43;;
45322;SDS011;31382;50.200;8.674;2023-08-30T08:39:18;9.73;;;8.73;;
45322;SDS011;31382;50.200;8.674;2023-08-30T08:44:19;10.32;;;8.63;;
45322;SDS011;31382;50.200;8.674;2023-08-30T08:49:22;11.77;;;8.00;;
45322;SDS011;31382;50.200;8.674;2023-08-30T08:54:24;11.90;;;8.88;;
45322;SDS011;31382;50.200;8.674;2023-08-30T08:59:27;9.43;;;8.27;;
45322;SDS011;31382;50.200;8.674;2023-08-30T09:04:30;7.85;;;6.95;;
45322;SDS011;31382;50.200;8.674;2023-08-30T09:09:32;11.40;;;6.80;;
45322;SDS011;31382;50.200;8.674;2023-08-30T09:14:34;8.43;;;5.90;;
45322;SDS011;31382;50.200;8.674;2023-08-30T09:19:36;8.57;;;5.80;;
45322;SDS011;31382;50.200;8.674;2023-08-30T09:24:38;8.98;;;4.18;;
45322;SDS011;31382;50.200;8.674;2023-08-30T09:29:43;5.82;;;4.40;;
45322;SDS011;31382;50.200;8.674;2023-08-30T09:34:47;7.43;;;4.95;;
45322;SDS011;31382;50.200;8.674;2023-08-30T09:39:49;5.28;;;3.83;;
45322;SDS011;31382;50.200;8.674;2023-08-30T09:44:51;10.90;;;4.88;;
45322;SDS011;31382;50.200;8.674;2023-08-30T09:49:56;3.33;;;2.97;;
45322;SDS011;31382;50.200;8.674;2023-08-30T09:54:59;6.22;;;3.53;;
45322;SDS011;31382;50.200;8.674;2023-08-30T10:00:02;6.10;;;3.03;;
45322;SDS011;31382;50.200;8.674;2023-08-30T10:05:08;4.20;;;2.92;;
45322;SDS011;31382;50.200;8.674;2023-08-30T10:10:10;6.10;;;3.50;;
45322;SDS011;31382;50.200;8.674;2023-08-30T10:15:13;4.43;;;2.72;;
45322;SDS011;31382;50.200;8.674;2023-08-30T10:20:14;4.47;;;3.10;;
45322;SDS011;31382;50.200;8.674;2023-08-30T10:25:20;3.47;;;2.60;;
45322;SDS011;31382;50.200;8.674;2023-08-30T10:30:24;3.83;;;2.35;;
45322;SDS011;31382;50.200;8.674;2023-08-30T10:35:26;4.78;;;1.90;;
45322;SDS011;31382;50.200;8.674;2023-08-30T10:40:28;3.08;;;1.90;;
45322;SDS011;31382;50.200;8.674;2023-08-30T10:45:29;3.55;;;2.38;;
45322;SDS011;31382;50.200;8.674;2023-08-30T10:50:31;2.75;;;1.70;;
45322;SDS011;31382;50.200;8.674;2023-08-30T10:55:34;4.22;;;2.17;;
45322;SDS011;31382;50.200;8.674;2023-08-30T11:00:35;4.60;;;1.02;;
45322;SDS011;31382;50.200;8.674;2023-08-30T11:05:41;3.27;;;1.10;;
45322;SDS011;31382;50.200;8.674;2023-08-30T11:10:43;3.92;;;1.23;;
45322;SDS011;31382;50.200;8.674;2023-08-30T11:15:44;3.55;;;0.95;;
45322;SDS011;31382;50.200;8.674;2023-08-30T11:20:46;4.63;;;1.00;;
45322;SDS011;31382;50.200;8.674;2023-08-30T11:25:50;3.03;;;1.42;;
45322;SDS011;31382;50.200;8.674;2023-08-30T11:30:55;2.17;;;1.13;;
45322;SDS011;31382;50.200;8.674;2023-08-30T11:35:57;1.73;;;1.38;;
45322;SDS011;31382;50.200;8.674;2023-08-30T11:40:59;1.20;;;0.90;;
45322;SDS011;31382;50.200;8.674;2023-08-30T11:46:02;2.42;;;0.80;;
45322;SDS011;31382;50.200;8.674;2023-08-30T11:51:04;3.80;;;1.20;;
45322;SDS011;31382;50.200;8.674;2023-08-30T11:56:06;2.03;;;1.15;;
45322;SDS011;31382;50.200;8.674;2023-08-30T12:01:08;1.05;;;0.80;;
45322;SDS011;31382;50.200;8.674;2023-08-30T12:06:10;2.65;;;0.90;;
45322;SDS011;31382;50.200;8.674;2023-08-30T12:11:17;1.73;;;1.10;;
45322;SDS011;31382;50.200;8.674;2023-08-30T12:16:21;1.35;;;1.05;;
45322;SDS011;31382;50.200;8.674;2023-08-30T12:21:23;1.90;;;1.10;;
45322;SDS011;31382;50.200;8.674;2023-08-30T12:26:31;1.58;;;0.98;;
45322;SDS011;31382;50.200;8.674;2023-08-30T12:31:33;2.97;;;1.08;;
45322;SDS011;31382;50.200;8.674;2023-08-30T12:36:35;1.75;;;1.02;;
45322;SDS011;31382;50.200;8.674;2023-08-30T12:41:36;2.00;;;1.15;;
45322;SDS011;31382;50.200;8.674;2023-08-30T12:46:40;2.38;;;0.90;;
45322;SDS011;31382;50.200;8.674;2023-08-30T12:51:42;4.65;;;1.38;;
45322;SDS011;31382;50.200;8.674;2023-08-30T12:56:43;2.80;;;1.00;;
45322;SDS011;31382;50.200;8.674;2023-08-30T13:01:45;3.00;;;0.98;;
45322;SDS011;31382;50.200;8.674;2023-08-30T13:06:47;1.55;;;0.95;;
45322;SDS011;31382;50.200;8.674;2023-08-30T13:11:48;2.60;;;1.20;;
45322;SDS011;31382;50.200;8.674;2023-08-30T13:16:50;4.85;;;1.23;;
45322;SDS011;31382;50.200;8.674;2023-08-30T13:21:51;3.50;;;0.90;;
45322;SDS011;31382;50.200;8.674;2023-08-30T13:26:52;3.03;;;1.10;;
45322;SDS011;31382;50.200;8.674;2023-08-30T13:31:54;1.58;;;0.60;;
45322;SDS011;31382;50.200;8.674;2023-08-30T13:36:55;3.67;;;0.90;;
45322;SDS011;31382;50.200;8.674;2023-08-30T13:41:57;3.92;;;1.08;;
45322;SDS011;31382;50.200;8.674;2023-08-30T13:46:58;1.45;;;0.70;;
45322;SDS011;31382;50.200;8.674;2023-08-30T13:52:00;1.88;;;0.82;;
45322;SDS011;31382;50.200;8.674;2023-08-30T13:57:01;1.90;;;0.90;;
45322;SDS011;31382;50.200;8.674;2023-08-30T14:02:03;2.22;;;0.85;;
45322;SDS011;31382;50.200;8.674;2023-08-30T14:07:05;3.55;;;1.23;;
45322;SDS011;31382;50.200;8.674;2023-08-30T14:12:07;2.65;;;0.77;;
45322;SDS011;31382;50.200;8.674;2023-08-30T14:17:08;1.75;;;0.95;;
45322;SDS011;31382;50.200;8.674;2023-08-30T14:22:10;2.75;;;1.25;;
45322;SDS011;31382;50.200;8.674;2023-08-30T14:27:11;2.40;;;1.15;;
45322;SDS011;31382;50.200;8.674;2023-08-30T14:32:14;1.70;;;1.00;;
45322;SDS011;31382;50.200;8.674;2023-08-30T14:37:15;3.42;;;1.08;;
45322;SDS011;31382;50.200;8.674;2023-08-30T14:42:16;2.83;;;1.40;;
45322;SDS011;31382;50.200;8.674;2023-08-30T14:47:18;2.72;;;1.13;;
45322;SDS011;31382;50.200;8.674;2023-08-30T14:52:19;2.80;;;1.45;;
45322;SDS011;31382;50.200;8.674;2023-08-30T14:57:21;7.20;;;1.38;;
45322;SDS011;31382;50.200;8.674;2023-08-30T15:02:23;4.47;;;1.67;;
45322;SDS011;31382;50.200;8.674;2023-08-30T15:07:25;5.35;;;2.08;;
45322;SDS011;31382;50.200;8.674;2023-08-30T15:12:26;2.25;;;1.17;;
45322;SDS011;31382;50.200;8.674;2023-08-30T15:17:28;2.85;;;0.93;;
45322;SDS011;31382;50.200;8.674;2023-08-30T15:22:29;2.53;;;1.17;;
45322;SDS011;31382;50.200;8.674;2023-08-30T15:27:31;2.20;;;0.90;;
45322;SDS011;31382;50.200;8.674;2023-08-30T15:32:32;4.35;;;1.27;;
45322;SDS011;31382;50.200;8.674;2023-08-30T15:37:34;1.40;;;1.17;;
45322;SDS011;31382;50.200;8.674;2023-08-30T15:42:35;2.78;;;0.90;;
45322;SDS011;31382;50.200;8.674;2023-08-30T15:47:37;2.30;;;0.75;;
45322;SDS011;31382;50.200;8.674;2023-08-30T15:52:38;2.10;;;0.88;;
45322;SDS011;31382;50.200;8.674;2023-08-30T15:57:40;2.55;;;0.80;;
45322;SDS011;31382;50.200;8.674;2023-08-30T16:02:41;1.30;;;0.90;;
45322;SDS011;31382;50.200;8.674;2023-08-30T16:07:43;2.63;;;0.80;;
45322;SDS011;31382;50.200;8.674;2023-08-30T16:12:44;3.08;;;1.02;;
45322;SDS011;31382;50.200;8.674;2023-08-30T16:17:46;1.27;;;0.90;;
45322;SDS011;31382;50.200;8.674;2023-08-30T16:22:48;1.17;;;0.63;;
45322;SDS011;31382;50.200;8.674;2023-08-30T16:27:52;2.35;;;0.90;;
45322;SDS011;31382;50.200;8.674;2023-08-30T16:32:54;7.35;;;1.45;;
45322;SDS011;31382;50.200;8.674;2023-08-30T16:37:57;3.55;;;1.33;;
45322;SDS011;31382;50.200;8.674;2023-08-30T16:42:59;3.03;;;0.55;;
45322;SDS011;31382;50.200;8.674;2023-08-30T16:48:00;2.08;;;0.90;;
45322;SDS011;31382;50.200;8.674;2023-08-30T16:53:04;2.25;;;0.70;;
45322;SDS011;31382;50.200;8.674;2023-08-30T16:58:09;1.35;;;0.60;;
45322;SDS011;31382;50.200;8.674;2023-08-30T17:03:11;1.45;;;0.50;;
45322;SDS011;31382;50.200;8.674;2023-08-30T17:08:13;1.17;;;0.40;;
45322;SDS011;31382;50.200;8.674;2023-08-30T17:13:14;0.98;;;0.60;;
45322;SDS011;31382;50.200;8.674;2023-08-30T17:18:16;0.80;;;0.47;;
45322;SDS011;31382;50.200;8.674;2023-08-30T17:23:17;1.13;;;0.60;;
45322;SDS011;31382;50.200;8.674;2023-08-30T17:28:19;0.65;;;0.40;;
45322;SDS011;31382;50.200;8.674;2023-08-30T17:33:20;0.82;;;0.30;;
45322;SDS011;31382;50.200;8.674;2023-08-30T17:38:22;0.73;;;0.30;;
45322;SDS011;31382;50.200;8.674;2023-08-30T17:43:23;3.80;;;1.05;;
45322;SDS011;31382;50.200;8.674;2023-08-30T17:48:24;1.33;;;0.35;;
45322;SDS011;31382;50.200;8.674;2023-08-30T17:53:26;1.25;;;0.40;;
45322;SDS011;31382;50.200;8.674;2023-08-30T17:58:28;2.88;;;0.30;;
45322;SDS011;31382;50.200;8.674;2023-08-30T18:03:29;1.08;;;0.40;;
45322;SDS011;31382;50.200;8.674;2023-08-30T18:08:31;1.40;;;0.30;;
45322;SDS011;31382;50.200;8.674;2023-08-30T18:13:33;0.50;;;0.30;;
45322;SDS011;31382;50.200;8.674;2023-08-30T18:18:34;1.27;;;0.50;;
45322;SDS011;31382;50.200;8.674;2023-08-30T18:23:40;2.78;;;0.65;;
45322;SDS011;31382;50.200;8.674;2023-08-30T18:28:43;6.10;;;0.50;;
45322;SDS011;31382;50.200;8.674;2023-08-30T18:33:44;1.63;;;0.80;;
45322;SDS011;31382;50.200;8.674;2023-08-30T18:38:46;3.90;;;0.70;;
45322;SDS011;31382;50.200;8.674;2023-08-30T18:43:47;1.40;;;0.57;;
45322;SDS011;31382;50.200;8.674;2023-08-30T18:48:49;1.83;;;0.60;;
45322;SDS011;31382;50.200;8.674;2023-08-30T18:53:51;2.35;;;1.00;;
45322;SDS011;31382;50.200;8.674;2023-08-30T18:58:53;5.43;;;1.10;;
45322;SDS011;31382;50.200;8.674;2023-08-30T19:03:56;4.60;;;0.85;;
45322;SDS011;31382;50.200;8.674;2023-08-30T19:08:58;2.90;;;0.98;;
45322;SDS011;31382;50.200;8.674;2023-08-30T19:14:00;5.45;;;1.13;;
45322;SDS011;31382;50.200;8.674;2023-08-30T19:19:01;3.65;;;1.35;;
45322;SDS011;31382;50.200;8.674;2023-08-30T19:24:03;2.47;;;1.60;;
45322;SDS011;31382;50.200;8.674;2023-08-30T19:29:05;5.85;;;1.75;;
45322;SDS011;31382;50.200;8.674;2023-08-30T19:34:07;2.90;;;2.15;;
45322;SDS011;31382;50.200;8.674;2023-08-30T19:39:08;8.25;;;2.50;;
45322;SDS011;31382;50.200;8.674;2023-08-30T19:44:10;8.23;;;2.75;;
45322;SDS011;31382;50.200;8.674;2023-08-30T19:49:12;5.95;;;2.80;;
45322;SDS011;31382;50.200;8.674;2023-08-30T19:54:13;4.53;;;2.45;;
45322;SDS011;31382;50.200;8.674;2023-08-30T19:59:15;4.38;;;2.28;;
45322;SDS011;31382;50.200;8.674;2023-08-30T20:04:16;5.78;;;2.78;;
45322;SDS011;31382;50.200;8.674;2023-08-30T20:09:17;3.90;;;2.80;;
45322;SDS011;31382;50.200;8.674;2023-08-30T20:14:19;7.75;;;3.28;;
45322;SDS011;31382;50.200;8.674;2023-08-30T20:19:20;4.72;;;2.70;;
45322;SDS011;31382;50.200;8.674;2023-08-30T20:24:22;5.30;;;2.15;;
45322;SDS011;31382;50.200;8.674;2023-08-30T20:29:23;4.65;;;2.25;;
45322;SDS011;31382;50.200;8.674;2023-08-30T20:34:25;5.63;;;1.75;;
45322;SDS011;31382;50.200;8.674;2023-08-30T20:39:26;5.43;;;1.92;;
45322;SDS011;31382;50.200;8.674;2023-08-30T20:44:28;4.18;;;2.45;;
45322;SDS011;31382;50.200;8.674;2023-08-30T20:49:29;3.10;;;1.42;;
45322;SDS011;31382;50.200;8.674;2023-08-30T20:54:31;4.32;;;1.90;;
45322;SDS011;31382;50.200;8.674;2023-08-30T20:59:32;3.88;;;1.75;;
45322;SDS011;31382;50.200;8.674;2023-08-30T21:04:34;6.45;;;1.90;;
45322;SDS011;31382;50.200;8.674;2023-08-30T21:09:36;3.63;;;1.40;;
45322;SDS011;31382;50.200;8.674;2023-08-30T21:14:37;3.67;;;1.80;;
45322;SDS011;31382;50.200;8.674;2023-08-30T21:19:38;5.78;;;1.85;;
45322;SDS011;31382;50.200;8.674;2023-08-30T21:24:40;5.28;;;1.98;;
45322;SDS011;31382;50.200;8.674;2023-08-30T21:29:41;3.40;;;1.25;;
45322;SDS011;31382;50.200;8.674;2023-08-30T21:34:43;7.47;;;2.35;;
45322;SDS011;31382;50.200;8.674;2023-08-30T21:39:44;3.47;;;1.77;;
45322;SDS011;31382;50.200;8.674;2023-08-30T21:44:48;4.93;;;1.50;;
45322;SDS011;31382;50.200;8.674;2023-08-30T21:49:49;6.55;;;1.88;;
45322;SDS011;31382;50.200;8.674;2023-08-30T21:54:51;7.07;;;1.65;;
45322;SDS011;31382;50.200;8.674;2023-08-30T21:59:52;4.25;;;2.03;;
45322;SDS011;31382;50.200;8.674;2023-08-30T22:04:54;5.28;;;1.65;;
45322;SDS011;31382;50.200;8.674;2023-08-30T22:09:56;2.20;;;1.42;;
45322;SDS011;31382;50.200;8.674;2023-08-30T22:14:58;3.38;;;1.83;;
45322;SDS011;31382;50.200;8.674;2023-08-30T22:19:59;2.65;;;1.70;;
45322;SDS011;31382;50.200;8.674;2023-08-30T22:25:00;4.07;;;1.27;;
45322;SDS011;31382;50.200;8.674;2023-08-30T22:30:02;3.22;;;1.52;;
45322;SDS011;31382;50.200;8.674;2023-08-30T22:35:05;7.63;;;1.80;;
45322;SDS011;31382;50.200;8.674;2023-08-30T22:40:08;4.45;;;1.25;;
45322;SDS011;31382;50.200;8.674;2023-08-30T22:45:10;3.03;;;1.80;;
45322;SDS011;31382;50.200;8.674;2023-08-30T22:50:11;4.10;;;1.55;;
45322;SDS011;31382;50.200;8.674;2023-08-30T22:55:13;1.52;;;1.00;;
45322;SDS011;31382;50.200;8.674;2023-08-30T23:00:14;2.08;;;1.30;;
45322;SDS011;31382;50.200;8.674;2023-08-30T23:05:16;3.60;;;1.50;;
45322;SDS011;31382;50.200;8.674;2023-08-30T23:10:17;1.73;;;1.20;;
45322;SDS011;31382;50.200;8.674;2023-08-30T23:15:21;4.85;;;1.40;;
45322;SDS011;31382;50.200;8.674;2023-08-30T23:20:23;1.77;;;1.23;;
45322;SDS011;31382;50.200;8.674;2023-08-30T23:25:25;7.45;;;1.60;;
45322;SDS011;31382;50.200;8.674;2023-08-30T23:30:26;5.07;;;1.80;;
45322;SDS011;31382;50.200;8.674;2023-08-30T23:35:30;2.25;;;0.90;;
45322;SDS011;31382;50.200;8.674;2023-08-30T23:40:33;3.72;;;1.10;;
45322;SDS011;31382;50.200;8.674;2023-08-30T23:45:36;7.32;;;1.10;;
45322;SDS011;31382;50.200;8.674;2023-08-30T23:50:38;3.10;;;1.27;;
45322;SDS011;31382;50.200;8.674;2023-08-30T23:55:39;2.85;;;1.35;;
